Time;durP1;ratioP1;P1;durP2;ratioP2;P2;SDS_P1;SDS_P2;PMS_P1;PMS_P2;Temp;Humidity;BMP_temperature;BMP_pressure;BME280_temperature;BME280_humidity;BME280_pressure;Samples;Min_cycle;Max_cycle;Signal;HPM_P1;HPM_P2
2021/03/27 00:00:15;;;;;;;;;;;;;;;8.60;74.58;95828.09;1035164;28;19963;-69
2021/03/27 00:00:52;;;;;;;;;;;;;;;8.60;74.75;95828.09;1038259;28;19901;-69
2021/03/27 00:01:31;;;;;;;;;;;;;;;8.61;74.83;95832.28;1042060;28;19912;-68
2021/03/27 00:02:07;;;;;;;;;;;;;;;8.66;74.40;95826.31;1035482;28;19906;-68
2021/03/27 00:02:38;;;;;;;;;;;;;;;8.66;74.97;95832.34;1038173;28;19909;-69
2021/03/27 00:03:21;;;;;;;;;;;;;;;8.68;75.11;95824.22;1030090;28;19951;-69
2021/03/27 00:03:54;;;;;;;;;;;;;;;8.68;74.86;95825.00;1030073;28;20311;-69
2021/03/27 00:04:28;;;;;;;;;;;;;;;8.71;74.94;95814.06;1035284;28;19954;-69
2021/03/27 00:05:05;;;;;;;;;;;;;;;8.74;74.71;95805.72;1039642;28;20378;-69
2021/03/27 00:05:38;;;;;;;;;;;;;;;8.80;74.44;95814.41;1036752;28;20016;-70
2021/03/27 00:06:08;;;;;;;;;;;;;;;8.91;74.12;95817.88;1029872;28;19901;-69
2021/03/27 00:06:39;;;;;;;;;;;;;;;9.00;73.34;95811.16;1026681;28;19902;-68
2021/03/27 00:07:11;;;;;;;;;;;;;;;9.06;73.06;95815.41;1027494;28;19906;-69
2021/03/27 00:07:49;;;;;;;;;;;;;;;9.10;73.10;95816.47;1031956;28;19905;-69
2021/03/27 00:08:26;;;;;;;;;;;;;;;9.10;73.56;95819.09;1031880;28;19968;-69
2021/03/27 00:08:57;;;;;;;;;;;;;;;9.12;73.63;95824.88;1033632;28;19902;-69
2021/03/27 00:09:34;;;;;;;;;;;;;;;9.13;74.69;95818.59;1035329;28;19952;-69
2021/03/27 00:10:23;;;;;;;;;;;;;;;9.12;75.20;95803.94;1030647;28;19913;-69
2021/03/27 00:11:01;;;;;;;;;;;;;;;9.16;75.44;95809.44;1038727;28;19905;-69
2021/03/27 00:11:31;;;;;;;;;;;;;;;9.20;74.90;95805.28;1034988;28;20588;-70
2021/03/27 00:12:04;;;;;;;;;;;;;;;9.23;74.52;95794.31;1034962;28;19905;-69
2021/03/27 00:12:38;;;;;;;;;;;;;;;9.37;73.89;95786.81;1031101;28;20057;-69
2021/03/27 00:13:18;;;;;;;;;;;;;;;9.42;73.68;95792.88;1027246;28;19909;-69
2021/03/27 00:13:59;;;;;;;;;;;;;;;9.47;74.02;95776.38;1025377;28;19906;-69
2021/03/27 00:14:49;;;;;;;;;;;;;;;9.61;73.48;95771.47;1027465;28;20367;-69
2021/03/27 00:15:23;;;;;;;;;;;;;;;9.84;71.87;95773.66;1030450;28;19956;-66
2021/03/27 00:16:12;;;;;;;;;;;;;;;10.07;69.17;95775.06;1031349;28;19906;-69
2021/03/27 00:16:46;;;;;;;;;;;;;;;10.22;69.05;95771.66;1035030;28;19909;-69
2021/03/27 00:17:20;;;;;;;;;;;;;;;10.22;69.25;95768.25;1034892;28;19901;-68
2021/03/27 00:17:56;;;;;;;;;;;;;;;10.24;68.96;95769.59;1034735;28;20442;-69
2021/03/27 00:18:32;;;;;;;;;;;;;;;10.28;68.57;95775.13;1025864;28;20446;-69
2021/03/27 00:19:07;;;;;;;;;;;;;;;10.36;68.08;95770.19;1025208;28;19903;-69
2021/03/27 00:19:52;;;;;;;;;;;;;;;10.35;68.16;95773.03;1024847;28;19916;-68
2021/03/27 00:20:24;;;;;;;;;;;;;;;10.33;68.71;95765.44;1032759;28;19920;-69
2021/03/27 00:21:04;;;;;;;;;;;;;;;10.34;68.44;95763.59;1031082;28;19906;-69
2021/03/27 00:21:36;;;;;;;;;;;;;;;10.31;68.76;95761.50;1030755;28;19993;-69
2021/03/27 00:22:12;;;;;;;;;;;;;;;10.27;69.25;95760.44;1034416;28;19981;-69
2021/03/27 00:23:03;;;;;;;;;;;;;;;10.23;68.97;95761.97;1035467;28;19901;-69
2021/03/27 00:23:33;;;;;;;;;;;;;;;10.23;68.71;95757.53;1037996;28;20297;-69
2021/03/27 00:24:06;;;;;;;;;;;;;;;10.20;69.15;95758.06;1035383;28;19906;-69
2021/03/27 00:24:52;;;;;;;;;;;;;;;10.19;68.70;95760.91;1027156;28;19940;-69
2021/03/27 00:25:27;;;;;;;;;;;;;;;10.13;69.59;95763.53;1025793;28;19907;-69
2021/03/27 00:26:02;;;;;;;;;;;;;;;10.10;69.48;95764.06;1023103;28;19989;-69
2021/03/27 00:26:55;;;;;;;;;;;;;;;10.07;69.94;95761.16;1026627;28;19909;-69
2021/03/27 00:27:27;;;;;;;;;;;;;;;10.01;70.16;95760.34;1020779;28;19958;-69
2021/03/27 00:27:57;;;;;;;;;;;;;;;9.97;70.63;95764.53;1034726;28;20373;-69
2021/03/27 00:28:48;;;;;;;;;;;;;;;9.94;70.65;95762.44;1034835;28;19905;-69
2021/03/27 00:29:22;;;;;;;;;;;;;;;9.89;70.88;95759.78;1036119;28;19948;-69
2021/03/27 00:29:55;;;;;;;;;;;;;;;9.84;71.25;95763.19;1035057;28;19912;-69
2021/03/27 00:30:27;;;;;;;;;;;;;;;9.78;71.67;95756.34;1038749;28;19944;-69
2021/03/27 00:31:24;;;;;;;;;;;;;;;9.75;71.95;95753.44;1027400;28;20315;-69
2021/03/27 00:31:56;;;;;;;;;;;;;;;9.80;71.39;95766.59;1024816;28;19902;-69
2021/03/27 00:32:37;;;;;;;;;;;;;;;9.75;71.39;95758.69;1027308;28;19950;-68
2021/03/27 00:33:07;;;;;;;;;;;;;;;9.71;71.66;95760.25;1035296;28;19996;-69
2021/03/27 00:33:38;;;;;;;;;;;;;;;9.66;72.18;95763.66;1026960;28;19906;-69
2021/03/27 00:34:10;;;;;;;;;;;;;;;9.65;72.03;95752.34;1023025;29;19906;-69
2021/03/27 00:34:41;;;;;;;;;;;;;;;9.62;72.33;95755.50;1019546;29;19961;-69
2021/03/27 00:35:13;;;;;;;;;;;;;;;9.41;72.57;95723.19;1019788;29;19910;-69
2021/03/27 00:35:49;;;;;;;;;;;;;;;9.60;72.66;95762.81;1028115;28;19906;-69
2021/03/27 00:36:21;;;;;;;;;;;;;;;9.58;72.65;95758.88;1032486;28;19905;-69
2021/03/27 00:36:52;;;;;;;;;;;;;;;9.56;72.50;95753.91;1028359;28;19905;-69
2021/03/27 00:37:23;;;;;;;;;;;;;;;9.52;72.82;95752.81;1025789;28;19906;-70
2021/03/27 00:37:54;;;;;;;;;;;;;;;9.52;73.10;95759.88;1015956;29;19903;-69
2021/03/27 00:38:26;;;;;;;;;;;;;;;9.50;73.22;95754.91;1026499;28;19906;-68
2021/03/27 00:39:04;;;;;;;;;;;;;;;9.47;73.45;95757.25;1030534;28;20516;-69
2021/03/27 00:39:46;;;;;;;;;;;;;;;9.43;73.93;95757.75;1031404;28;19906;-70
2021/03/27 00:40:17;;;;;;;;;;;;;;;9.50;72.83;95754.13;1031005;28;19913;-69
2021/03/27 00:40:48;;;;;;;;;;;;;;;9.48;73.23;95754.38;1032040;28;19910;-69
2021/03/27 00:41:20;;;;;;;;;;;;;;;9.51;72.61;95753.88;1032971;28;19902;-68
2021/03/27 00:41:54;;;;;;;;;;;;;;;9.51;72.82;95758.31;1031324;28;20378;-69
2021/03/27 00:42:31;;;;;;;;;;;;;;;9.50;72.85;95757.53;1033817;28;19906;-68
2021/03/27 00:43:03;;;;;;;;;;;;;;;9.46;73.20;95751.25;1028864;28;19906;-69
2021/03/27 00:43:43;;;;;;;;;;;;;;;9.44;73.63;95754.09;1031120;28;19913;-69
2021/03/27 00:44:13;;;;;;;;;;;;;;;9.43;73.79;95756.97;1021206;28;19907;-69
2021/03/27 00:44:51;;;;;;;;;;;;;;;9.42;73.25;95760.63;1027169;28;19937;-69
2021/03/27 00:45:22;;;;;;;;;;;;;;;9.43;73.39;95752.53;1035178;28;19905;-69
2021/03/27 00:45:53;;;;;;;;;;;;;;;9.43;72.95;95752.53;1037133;28;19941;-70
2021/03/27 00:46:24;;;;;;;;;;;;;;;9.40;73.58;95747.00;1033898;28;19905;-69
2021/03/27 00:46:54;;;;;;;;;;;;;;;9.37;73.75;95748.31;1030744;28;19906;-69
2021/03/27 00:47:26;;;;;;;;;;;;;;;9.41;73.51;95748.59;1031142;28;19933;-68
2021/03/27 00:47:59;;;;;;;;;;;;;;;9.46;73.43;95748.63;1035108;28;19906;-70
2021/03/27 00:48:37;;;;;;;;;;;;;;;9.58;72.29;95746.56;1030994;28;19910;-69
2021/03/27 00:49:15;;;;;;;;;;;;;;;9.61;72.09;95747.88;1033930;28;19932;-69
2021/03/27 00:49:51;;;;;;;;;;;;;;;9.63;71.75;95741.34;1037494;28;20414;-69
2021/03/27 00:50:26;;;;;;;;;;;;;;;9.62;71.92;95745.03;1034014;28;20000;-69
2021/03/27 00:50:57;;;;;;;;;;;;;;;9.61;72.54;95751.28;1030610;28;19906;-70
2021/03/27 00:51:27;;;;;;;;;;;;;;;9.58;72.46;95748.41;1031372;28;20630;-69
2021/03/27 00:52:01;;;;;;;;;;;;;;;9.60;72.07;95747.09;1028471;28;19906;-68
2021/03/27 00:52:39;;;;;;;;;;;;;;;9.58;72.25;95749.19;1030638;28;19913;-69
2021/03/27 00:53:12;;;;;;;;;;;;;;;9.62;71.92;95739.78;1030997;28;19906;-69
2021/03/27 00:53:47;;;;;;;;;;;;;;;9.63;72.01;95746.59;1027139;28;19909;-69
2021/03/27 00:54:23;;;;;;;;;;;;;;;9.66;71.68;95742.69;1029078;28;19917;-68
2021/03/27 00:54:58;;;;;;;;;;;;;;;9.74;71.57;95744.03;1037166;28;19992;-68
2021/03/27 00:55:34;;;;;;;;;;;;;;;9.77;71.07;95743.50;1037404;28;19912;-69
2021/03/27 00:56:15;;;;;;;;;;;;;;;9.87;70.75;95746.16;1035091;28;20003;-69
2021/03/27 00:57:04;;;;;;;;;;;;;;;9.89;70.82;95751.91;1027044;28;20022;-69
2021/03/27 00:57:39;;;;;;;;;;;;;;;9.95;70.70;95750.88;1027028;28;19913;-68
2021/03/27 00:58:13;;;;;;;;;;;;;;;9.98;70.41;95747.75;1031342;28;19973;-69
2021/03/27 00:58:45;;;;;;;;;;;;;;;9.98;70.29;95747.75;1034345;28;19905;-68
2021/03/27 00:59:19;;;;;;;;;;;;;;;9.97;71.02;95754.06;1030642;28;20407;-68
2021/03/27 00:59:59;;;;;;;;;;;;;;;9.98;70.65;95750.38;1032517;28;19938;-69
2021/03/27 01:00:29;;;;;;;;;;;;;;;9.99;70.78;95754.56;1029064;28;20596;-69
2021/03/27 01:01:00;;;;;;;;;;;;;;;10.00;70.46;95750.13;1032821;28;20055;-69
2021/03/27 01:01:33;;;;;;;;;;;;;;;10.00;70.41;95753.53;1035040;28;20302;-68
2021/03/27 01:02:11;;;;;;;;;;;;;;;9.98;70.74;95745.13;1036043;28;19917;-69
2021/03/27 01:02:44;;;;;;;;;;;;;;;9.96;70.81;95749.88;1038782;28;19905;-69
2021/03/27 01:03:17;;;;;;;;;;;;;;;9.98;70.46;95746.97;1028987;28;19905;-69
2021/03/27 01:03:52;;;;;;;;;;;;;;;9.97;70.51;95748.81;1027216;28;19906;-68
2021/03/27 01:04:24;;;;;;;;;;;;;;;9.95;70.76;95743.03;1028509;28;19981;-68
2021/03/27 01:04:54;;;;;;;;;;;;;;;9.94;70.99;95745.91;1032341;28;19920;-69
2021/03/27 01:05:25;;;;;;;;;;;;;;;9.90;71.09;95750.88;1030957;28;20406;-69
2021/03/27 01:05:56;;;;;;;;;;;;;;;9.87;71.31;95751.41;1031113;28;19928;-69
2021/03/27 01:06:30;;;;;;;;;;;;;;;9.82;71.66;95751.38;1029901;28;19936;-69
2021/03/27 01:07:02;;;;;;;;;;;;;;;9.84;71.21;95751.91;1035118;28;19943;-69
2021/03/27 01:07:32;;;;;;;;;;;;;;;9.82;71.64;95743.50;1027623;28;20509;-69
2021/03/27 01:08:04;;;;;;;;;;;;;;;9.80;71.45;95750.84;1028418;28;19917;-69
2021/03/27 01:08:34;;;;;;;;;;;;;;;9.78;71.55;95752.94;1026040;28;19906;-68
2021/03/27 01:09:05;;;;;;;;;;;;;;;9.74;72.05;95751.88;1027487;28;19976;-69
2021/03/27 01:09:38;;;;;;;;;;;;;;;9.73;72.05;95747.69;1026797;28;20295;-69
2021/03/27 01:10:08;;;;;;;;;;;;;;;9.70;72.46;95748.19;1027673;28;19913;-69
2021/03/27 01:10:40;;;;;;;;;;;;;;;9.67;72.46;95746.88;1034962;28;19906;-69
2021/03/27 01:11:21;;;;;;;;;;;;;;;9.64;72.43;95742.94;1023541;28;19906;-69
2021/03/27 01:11:55;;;;;;;;;;;;;;;9.65;72.70;95743.72;1032737;28;20407;-69
2021/03/27 01:12:29;;;;;;;;;;;;;;;9.61;73.34;95742.66;1031050;28;19901;-69
2021/03/27 01:12:59;;;;;;;;;;;;;;;9.56;73.25;95740.81;1032425;28;20741;-70
2021/03/27 01:13:39;;;;;;;;;;;;;;;9.53;73.65;95740.53;1030137;28;19905;-69
2021/03/27 01:14:12;;;;;;;;;;;;;;;9.49;73.71;95750.72;1024811;28;19981;-69
2021/03/27 01:15:05;;;;;;;;;;;;;;;9.46;74.17;95746.00;1026014;28;19910;-69
2021/03/27 01:15:46;;;;;;;;;;;;;;;9.43;74.15;95738.66;1029425;28;19990;-69
2021/03/27 01:16:17;;;;;;;;;;;;;;;9.42;74.22;95739.66;1034662;28;19991;-68
2021/03/27 01:16:55;;;;;;;;;;;;;;;9.41;74.38;95740.72;1029857;28;19913;-69
2021/03/27 01:17:27;;;;;;;;;;;;;;;9.41;74.80;95741.50;1035285;28;20020;-70
2021/03/27 01:17:58;;;;;;;;;;;;;;;9.38;74.94;95743.84;1028024;28;19914;-70
2021/03/27 01:18:32;;;;;;;;;;;;;;;9.36;75.14;95741.50;1026079;28;19961;-68
2021/03/27 01:19:03;;;;;;;;;;;;;;;9.32;75.32;95750.09;1022311;29;19906;-69
2021/03/27 01:19:35;;;;;;;;;;;;;;;9.31;75.83;95748.53;1020662;28;19914;-68
2021/03/27 01:20:08;;;;;;;;;;;;;;;9.33;75.69;95741.22;1032849;28;19912;-69
2021/03/27 01:20:39;;;;;;;;;;;;;;;9.29;75.76;95751.41;1035068;28;19956;-68
2021/03/27 01:21:19;;;;;;;;;;;;;;;9.27;75.86;95748.25;1035125;28;20362;-69
2021/03/27 01:21:49;;;;;;;;;;;;;;;9.26;76.13;95745.91;1032378;28;20060;-69
2021/03/27 01:22:20;;;;;;;;;;;;;;;9.24;76.28;95747.97;1036507;28;19902;-69
2021/03/27 01:22:50;;;;;;;;;;;;;;;9.20;76.42;95751.09;1035334;28;19909;-69
2021/03/27 01:23:21;;;;;;;;;;;;;;;9.17;76.55;95751.59;1030833;28;19909;-69
2021/03/27 01:23:55;;;;;;;;;;;;;;;9.15;77.01;95756.31;1031045;28;20402;-69
2021/03/27 01:24:26;;;;;;;;;;;;;;;9.14;77.00;95746.84;1031739;28;19905;-69
2021/03/27 01:25:00;;;;;;;;;;;;;;;9.11;77.31;95752.59;1031556;28;19910;-69
2021/03/27 01:25:32;;;;;;;;;;;;;;;9.08;77.45;95750.47;1028362;28;19910;-69
2021/03/27 01:26:05;;;;;;;;;;;;;;;9.03;77.57;95747.84;1030900;28;19906;-69
2021/03/27 01:26:37;;;;;;;;;;;;;;;9.03;77.82;95749.69;1024004;28;20778;-69
2021/03/27 01:27:21;;;;;;;;;;;;;;;9.03;77.71;95747.84;1027675;28;19914;-69
2021/03/27 01:27:53;;;;;;;;;;;;;;;9.01;77.64;95749.91;1019055;28;19954;-69
2021/03/27 01:28:23;;;;;;;;;;;;;;;8.96;78.10;95745.44;1026509;28;19907;-69
2021/03/27 01:28:57;;;;;;;;;;;;;;;8.93;78.16;95751.19;1030818;28;19906;-69
2021/03/27 01:29:34;;;;;;;;;;;;;;;8.95;78.02;95749.13;1035828;28;19909;-69
2021/03/27 01:30:34;;;;;;;;;;;;;;;8.91;78.27;95752.47;1038867;28;19951;-69
2021/03/27 01:31:06;;;;;;;;;;;;;;;8.89;78.15;95751.94;1023318;28;20686;-69
2021/03/27 01:31:41;;;;;;;;;;;;;;;8.90;78.30;95745.66;1035341;28;19909;-69
2021/03/27 01:32:13;;;;;;;;;;;;;;;8.92;77.88;95751.41;1026576;28;20400;-68
2021/03/27 01:32:53;;;;;;;;;;;;;;;8.91;77.83;95749.84;1030253;28;19936;-68
2021/03/27 01:33:26;;;;;;;;;;;;;;;8.92;78.09;95751.41;1030581;28;19959;-69
2021/03/27 01:33:59;;;;;;;;;;;;;;;8.91;77.64;95745.41;1037074;28;19902;-69
2021/03/27 01:34:30;;;;;;;;;;;;;;;8.88;78.10;95750.34;1032593;28;19909;-69
2021/03/27 01:35:03;;;;;;;;;;;;;;;8.87;78.34;95748.78;1031381;28;19910;-68
2021/03/27 01:35:39;;;;;;;;;;;;;;;8.91;77.83;95748.03;1034443;28;19910;-68
2021/03/27 01:36:12;;;;;;;;;;;;;;;8.92;77.67;95752.22;1035139;28;20411;-69
2021/03/27 01:37:04;;;;;;;;;;;;;;;8.90;77.93;95754.31;1032745;28;19909;-69
2021/03/27 01:37:44;;;;;;;;;;;;;;;8.87;77.83;95751.41;1042598;28;19904;-68
2021/03/27 01:38:19;;;;;;;;;;;;;;;8.84;78.39;95752.69;1038649;28;19905;-69
2021/03/27 01:38:55;;;;;;;;;;;;;;;8.83;78.39;95760.78;1034678;28;20394;-69
2021/03/27 01:39:26;;;;;;;;;;;;;;;8.86;77.90;95755.06;1024527;28;19902;-69
2021/03/27 01:40:07;;;;;;;;;;;;;;;8.85;77.96;95754.28;1028408;28;20276;-69
2021/03/27 01:40:56;;;;;;;;;;;;;;;8.88;78.29;95756.38;1028481;28;20036;-69
2021/03/27 01:41:26;;;;;;;;;;;;;;;8.87;78.37;95754.81;1039121;28;20011;-69
2021/03/27 01:41:59;;;;;;;;;;;;;;;8.87;78.25;95754.00;1031623;28;20371;-69
2021/03/27 01:42:36;;;;;;;;;;;;;;;8.84;78.48;95754.50;1038674;28;19905;-69
2021/03/27 01:43:29;;;;;;;;;;;;;;;8.86;78.20;95763.69;1034924;28;19902;-69
2021/03/27 01:44:18;;;;;;;;;;;;;;;8.81;78.33;95768.88;1031232;28;19909;-69
2021/03/27 01:45:06;;;;;;;;;;;;;;;8.77;78.35;95761.78;1032455;28;19905;-69
2021/03/27 01:45:55;;;;;;;;;;;;;;;8.71;78.77;95766.97;1032248;28;19906;-70
2021/03/27 01:46:44;;;;;;;;;;;;;;;8.70;78.62;95769.84;1035280;28;19902;-69
2021/03/27 01:47:33;;;;;;;;;;;;;;;8.68;78.58;95762.22;1031812;28;19906;-70
2021/03/27 01:48:05;;;;;;;;;;;;;;;8.69;78.51;95758.59;1039216;28;19995;-69
2021/03/27 01:48:35;;;;;;;;;;;;;;;8.72;78.36;95765.94;1034380;28;19941;-69
2021/03/27 01:49:08;;;;;;;;;;;;;;;8.70;78.55;95765.41;1037293;28;20337;-69
2021/03/27 01:49:44;;;;;;;;;;;;;;;8.68;78.42;95762.22;1030127;28;19902;-69
2021/03/27 01:50:15;;;;;;;;;;;;;;;8.70;78.84;95767.22;1031414;28;19912;-69
2021/03/27 01:50:46;;;;;;;;;;;;;;;8.70;78.71;95765.41;1031649;28;19909;-66
2021/03/27 01:51:38;;;;;;;;;;;;;;;8.71;78.46;95761.72;1027678;28;20342;-69
2021/03/27 01:52:19;;;;;;;;;;;;;;;8.70;78.62;95769.84;1034069;28;19901;-69
2021/03/27 01:52:52;;;;;;;;;;;;;;;8.73;78.21;95762.28;1026809;28;20460;-68
2021/03/27 01:53:37;;;;;;;;;;;;;;;8.78;78.19;95765.97;1030834;28;20831;-69
2021/03/27 01:54:11;;;;;;;;;;;;;;;8.77;77.89;95767.03;1031297;28;20329;-69
2021/03/27 01:55:00;;;;;;;;;;;;;;;8.80;77.74;95763.91;1040706;28;19916;-69
2021/03/27 01:55:48;;;;;;;;;;;;;;;8.80;78.16;95766.53;1043440;28;19905;-69
2021/03/27 01:56:21;;;;;;;;;;;;;;;8.80;78.11;95769.13;1041774;28;19908;-69
2021/03/27 01:57:07;;;;;;;;;;;;;;;8.78;78.37;95768.59;1035406;28;20384;-69
2021/03/27 01:57:59;;;;;;;;;;;;;;;8.79;78.31;95762.34;1030699;28;19910;-69
2021/03/27 01:58:31;;;;;;;;;;;;;;;8.80;77.91;95764.69;1031227;28;19914;-69
2021/03/27 01:59:07;;;;;;;;;;;;;;;8.79;78.07;95770.19;1034992;28;20030;-69
2021/03/27 01:59:37;;;;;;;;;;;;;;;8.77;78.46;95764.41;1027514;28;19910;-69
2021/03/27 02:00:10;;;;;;;;;;;;;;;8.77;78.23;95767.81;1027966;28;19906;-68
2021/03/27 02:01:00;;;;;;;;;;;;;;;8.75;78.50;95769.88;1033193;28;20382;-69
2021/03/27 02:01:32;;;;;;;;;;;;;;;8.73;78.27;95772.75;1033744;28;19916;-69
2021/03/27 02:02:04;;;;;;;;;;;;;;;8.74;78.27;95771.69;1030947;28;19920;-68
2021/03/27 02:02:34;;;;;;;;;;;;;;;8.77;78.05;95772.25;1031373;28;19912;-69
2021/03/27 02:03:11;;;;;;;;;;;;;;;8.80;78.13;95774.38;1034773;28;19940;-69
2021/03/27 02:03:53;;;;;;;;;;;;;;;8.97;77.64;95775.03;1035241;28;20044;-68
2021/03/27 02:04:29;;;;;;;;;;;;;;;9.03;76.97;95763.56;1035174;28;19990;-69
2021/03/27 02:05:26;;;;;;;;;;;;;;;9.10;76.51;95764.13;1034931;28;20333;-69
2021/03/27 02:06:03;;;;;;;;;;;;;;;9.14;76.43;95775.66;1036010;28;19909;-69
2021/03/27 02:06:52;;;;;;;;;;;;;;;9.19;76.42;95765.22;1036441;28;19902;-68
2021/03/27 02:07:27;;;;;;;;;;;;;;;9.22;76.51;95766.53;1039851;28;19955;-69
2021/03/27 02:07:59;;;;;;;;;;;;;;;9.24;76.35;95772.31;1035969;28;20412;-69
2021/03/27 02:08:37;;;;;;;;;;;;;;;9.29;76.49;95771.53;1033780;28;19905;-69
2021/03/27 02:09:37;;;;;;;;;;;;;;;9.44;75.89;95774.25;1030878;28;19906;-69
2021/03/27 02:10:26;;;;;;;;;;;;;;;9.39;76.01;95771.63;1026030;28;20538;-69
2021/03/27 02:11:03;;;;;;;;;;;;;;;9.38;76.09;95772.66;1034294;28;20590;-69
2021/03/27 02:11:52;;;;;;;;;;;;;;;9.32;76.61;95773.66;1027046;28;20398;-69
2021/03/27 02:12:32;;;;;;;;;;;;;;;9.25;76.96;95781.75;1033187;28;20410;-69
2021/03/27 02:13:28;;;;;;;;;;;;;;;9.19;77.58;95783.56;1022875;29;20434;-69
2021/03/27 02:14:03;;;;;;;;;;;;;;;9.24;77.31;95784.63;1026966;28;19906;-69
2021/03/27 02:14:41;;;;;;;;;;;;;;;9.23;77.50;95788.28;1027206;28;19993;-69
2021/03/27 02:15:16;;;;;;;;;;;;;;;9.17;77.69;95790.88;1015977;28;19903;-69
2021/03/27 02:15:58;;;;;;;;;;;;;;;9.14;78.00;95790.59;1021207;29;19942;-67
2021/03/27 02:16:30;;;;;;;;;;;;;;;9.15;77.74;95800.81;1026504;28;19910;-68
2021/03/27 02:17:02;;;;;;;;;;;;;;;9.13;77.96;95789.78;1030079;28;20397;-69
2021/03/27 02:17:38;;;;;;;;;;;;;;;9.16;77.99;95794.53;1027194;28;20532;-70
2021/03/27 02:18:13;;;;;;;;;;;;;;;9.15;77.85;95800.81;1023810;28;20002;-68
2021/03/27 02:18:52;;;;;;;;;;;;;;;9.15;77.96;95798.19;1023008;29;20343;-69
2021/03/27 02:19:31;;;;;;;;;;;;;;;9.17;78.31;95806.56;1027978;28;19906;-68
2021/03/27 02:20:01;;;;;;;;;;;;;;;9.15;78.37;95803.44;1038698;28;19920;-69
2021/03/27 02:20:49;;;;;;;;;;;;;;;9.15;78.64;95800.81;1032690;28;19916;-69
2021/03/27 02:21:25;;;;;;;;;;;;;;;9.09;79.15;95806.25;1030936;28;19968;-69
2021/03/27 02:21:58;;;;;;;;;;;;;;;9.11;79.38;95802.34;1030567;28;20381;-69
2021/03/27 02:22:34;;;;;;;;;;;;;;;9.10;79.60;95810.44;1034377;28;20706;-68
2021/03/27 02:23:08;;;;;;;;;;;;;;;9.09;79.55;95803.66;1029004;28;20391;-68
2021/03/27 02:23:47;;;;;;;;;;;;;;;9.12;79.66;95803.94;1033159;28;19906;-69
2021/03/27 02:24:27;;;;;;;;;;;;;;;9.15;79.36;95803.44;1031190;28;19909;-67
2021/03/27 02:25:06;;;;;;;;;;;;;;;9.16;79.60;95809.44;1038276;28;19909;-69
2021/03/27 02:25:46;;;;;;;;;;;;;;;9.13;79.58;95805.50;1042955;28;19995;-67
2021/03/27 02:26:16;;;;;;;;;;;;;;;9.11;79.80;95807.56;1043361;28;19996;-69
2021/03/27 02:26:54;;;;;;;;;;;;;;;9.11;79.70;95804.94;1036146;28;20392;-69
2021/03/27 02:27:29;;;;;;;;;;;;;;;9.06;79.80;95810.16;1037113;28;20189;-69
2021/03/27 02:28:18;;;;;;;;;;;;;;;9.05;80.28;95808.56;1030916;28;19910;-69
2021/03/27 02:29:27;;;;;;;;;;;;;;;9.06;80.28;95804.94;1034570;28;19909;-69
2021/03/27 02:30:04;;;;;;;;;;;;;;;9.01;80.37;95811.94;1034907;28;19901;-69
2021/03/27 02:30:41;;;;;;;;;;;;;;;8.98;80.48;95808.00;1030869;28;20402;-69
2021/03/27 02:31:11;;;;;;;;;;;;;;;8.93;80.94;95807.97;1031356;28;19910;-68
2021/03/27 02:31:42;;;;;;;;;;;;;;;8.92;80.99;95816.84;1034404;28;19916;-68
2021/03/27 02:32:17;;;;;;;;;;;;;;;8.89;80.89;95812.13;1033127;28;19992;-69
2021/03/27 02:33:06;;;;;;;;;;;;;;;8.84;81.35;95818.09;1034425;28;19949;-69
2021/03/27 02:33:37;;;;;;;;;;;;;;;8.76;81.85;95805.47;1030746;28;19906;-69
2021/03/27 02:34:23;;;;;;;;;;;;;;;8.76;81.77;95804.69;1030356;28;19980;-69
2021/03/27 02:35:14;;;;;;;;;;;;;;;8.70;82.06;95802.03;1026909;28;19913;-69
2021/03/27 02:36:00;;;;;;;;;;;;;;;8.63;82.41;95800.66;1031776;28;20024;-69
2021/03/27 02:36:33;;;;;;;;;;;;;;;8.64;82.97;95797.78;1032558;28;19954;-69
2021/03/27 02:37:22;;;;;;;;;;;;;;;8.63;82.98;95795.41;1032749;28;20000;-69
2021/03/27 02:38:11;;;;;;;;;;;;;;;8.62;82.88;95797.25;1035340;28;19907;-69
2021/03/27 02:38:51;;;;;;;;;;;;;;;8.61;82.98;95795.66;1038687;28;20364;-68
2021/03/27 02:39:25;;;;;;;;;;;;;;;8.57;83.48;95789.34;1039134;28;20325;-69
2021/03/27 02:39:57;;;;;;;;;;;;;;;8.56;83.45;95789.59;1035034;28;19916;-69
2021/03/27 02:40:32;;;;;;;;;;;;;;;8.57;83.38;95784.13;1032583;28;19910;-69
2021/03/27 02:41:41;;;;;;;;;;;;;;;8.57;83.20;95793.78;1028312;28;20004;-69
2021/03/27 02:42:30;;;;;;;;;;;;;;;8.51;83.53;95787.72;1032732;28;20371;-69
2021/03/27 02:43:09;;;;;;;;;;;;;;;8.45;83.83;95786.91;1034720;28;19909;-69
2021/03/27 02:43:40;;;;;;;;;;;;;;;8.42;84.24;95784.78;1027121;28;19906;-67
2021/03/27 02:44:10;;;;;;;;;;;;;;;8.40;84.18;95786.84;1031050;28;19910;-69
2021/03/27 02:44:46;;;;;;;;;;;;;;;8.37;84.47;95781.28;1031712;28;19906;-69
2021/03/27 02:45:17;;;;;;;;;;;;;;;8.32;84.58;95776.81;1028812;28;19910;-69
2021/03/27 02:45:58;;;;;;;;;;;;;;;8.30;85.08;95778.88;1028020;28;19910;-69
2021/03/27 02:46:28;;;;;;;;;;;;;;;8.26;85.08;95780.41;1031629;28;19909;-69
2021/03/27 02:47:06;;;;;;;;;;;;;;;8.23;85.60;95779.06;1032935;28;19943;-69
2021/03/27 02:47:45;;;;;;;;;;;;;;;8.23;85.57;95776.44;1035450;28;19910;-70
2021/03/27 02:48:20;;;;;;;;;;;;;;;8.20;86.10;95776.94;1037220;28;19906;-68
2021/03/27 02:48:55;;;;;;;;;;;;;;;8.16;85.99;95788.16;1034509;28;20353;-66
2021/03/27 02:49:26;;;;;;;;;;;;;;;8.15;86.22;95783.94;1027416;28;20000;-69
2021/03/27 02:50:02;;;;;;;;;;;;;;;8.13;86.63;95778.19;1028858;28;20378;-69
2021/03/27 02:50:47;;;;;;;;;;;;;;;8.12;86.40;95787.06;1036143;28;19999;-69
2021/03/27 02:51:20;;;;;;;;;;;;;;;8.11;86.51;95788.88;1034326;28;19909;-69
2021/03/27 02:51:51;;;;;;;;;;;;;;;8.08;86.69;95789.38;1035036;28;19920;-69
2021/03/27 02:52:40;;;;;;;;;;;;;;;8.06;86.78;95783.59;1026995;28;19906;-69
2021/03/27 02:53:13;;;;;;;;;;;;;;;8.05;86.83;95784.63;1025684;28;19910;-69
2021/03/27 02:53:45;;;;;;;;;;;;;;;8.03;87.21;95784.09;1030378;28;19909;-68
2021/03/27 02:54:18;;;;;;;;;;;;;;;8.03;87.34;95781.47;1033398;28;20155;-69
2021/03/27 02:55:00;;;;;;;;;;;;;;;8.03;87.24;95781.47;1031726;28;20396;-69
2021/03/27 02:55:30;;;;;;;;;;;;;;;8.05;87.30;95779.41;1031431;28;20414;-69
2021/03/27 02:56:01;;;;;;;;;;;;;;;8.02;87.42;95780.69;1037330;28;19909;-70
2021/03/27 02:56:49;;;;;;;;;;;;;;;8.01;87.65;95788.75;1038284;28;20301;-69
2021/03/27 02:57:26;;;;;;;;;;;;;;;7.97;87.46;95787.66;1036197;28;19910;-69
2021/03/27 02:57:56;;;;;;;;;;;;;;;7.93;87.47;95787.38;1035513;28;19909;-68
2021/03/27 02:58:34;;;;;;;;;;;;;;;7.93;87.70;95783.97;1035259;28;20337;-69
2021/03/27 02:59:16;;;;;;;;;;;;;;;7.92;87.87;95785.81;1032184;28;20441;-69
2021/03/27 02:59:52;;;;;;;;;;;;;;;7.93;88.11;95781.34;1030079;28;19906;-68
2021/03/27 03:00:27;;;;;;;;;;;;;;;8.04;87.80;95775.19;1031635;28;19924;-69
2021/03/27 03:01:18;;;;;;;;;;;;;;;8.06;87.67;95769.75;1030791;28;20029;-69
2021/03/27 03:01:52;;;;;;;;;;;;;;;8.05;87.55;95771.56;1039547;28;19913;-69
2021/03/27 03:02:30;;;;;;;;;;;;;;;8.04;87.54;95772.59;1035505;28;19910;-69
2021/03/27 03:03:01;;;;;;;;;;;;;;;8.02;87.63;95769.44;1030932;28;19913;-69
2021/03/27 03:03:35;;;;;;;;;;;;;;;8.03;87.82;95768.41;1019494;29;19921;-69
2021/03/27 03:04:05;;;;;;;;;;;;;;;8.01;87.88;95773.06;1024063;28;19918;-69
2021/03/27 03:04:35;;;;;;;;;;;;;;;8.00;88.02;95772.28;1029164;28;19906;-69
2021/03/27 03:05:07;;;;;;;;;;;;;;;7.99;88.13;95767.31;1028611;28;19945;-69
2021/03/27 03:05:39;;;;;;;;;;;;;;;7.99;88.17;95767.31;1031746;28;19918;-69
2021/03/27 03:06:15;;;;;;;;;;;;;;;7.96;88.30;95771.22;1032288;28;19917;-70
2021/03/27 03:06:48;;;;;;;;;;;;;;;7.93;88.32;95757.84;1035864;28;19952;-69
2021/03/27 03:07:26;;;;;;;;;;;;;;;7.91;88.65;95767.75;1038552;28;19916;-70
2021/03/27 03:08:14;;;;;;;;;;;;;;;7.89;88.64;95756.75;1034851;28;19935;-69
2021/03/27 03:08:47;;;;;;;;;;;;;;;7.85;89.08;95758.28;1027315;28;20005;-69
2021/03/27 03:09:19;;;;;;;;;;;;;;;7.82;89.21;95764.00;1027622;28;19921;-69
2021/03/27 03:10:20;;;;;;;;;;;;;;;7.82;89.60;95766.63;1029300;28;19914;-69
2021/03/27 03:10:53;;;;;;;;;;;;;;;7.74;89.74;95768.59;1023913;28;19941;-68
2021/03/27 03:11:25;;;;;;;;;;;;;;;7.69;89.85;95765.94;1031747;28;19918;-68
2021/03/27 03:12:04;;;;;;;;;;;;;;;7.65;90.03;95770.06;1039729;28;20773;-69
2021/03/27 03:12:38;;;;;;;;;;;;;;;7.63;90.28;95779.19;1041286;28;19913;-68
2021/03/27 03:13:15;;;;;;;;;;;;;;;7.60;90.96;95783.06;1040427;28;20000;-69
2021/03/27 03:13:54;;;;;;;;;;;;;;;7.59;91.24;95791.13;1033214;28;20413;-69